Time;durP1;ratioP1;P1;durP2;ratioP2;P2;SDS_P1;SDS_P2;PMS_P1;PMS_P2;Temp;Humidity;BMP_temperature;BMP_pressure;BME280_temperature;BME280_humidity;BME280_pressure;Samples;Min_cycle;Max_cycle;Signal;HPM_P1;HPM_P2
2022/03/05 00:01:58;;;;;;;79.72;57.83;;;18.80;50.60;;;;;;4986394;28;90594;-69
2022/03/05 00:04:24;;;;;;;75.13;55.75;;;18.80;50.80;;;;;;4991991;28;89958;-69
2022/03/05 00:06:50;;;;;;;78.60;56.92;;;18.80;50.80;;;;;;4986792;28;90684;-70
2022/03/05 00:09:17;;;;;;;77.10;56.80;;;18.80;50.70;;;;;;4986341;28;91934;-69
2022/03/05 00:11:43;;;;;;;77.72;57.22;;;18.70;50.80;;;;;;4987524;28;90487;-69
2022/03/05 00:14:09;;;;;;;76.55;57.03;;;18.70;50.70;;;;;;4992191;28;89729;-70
2022/03/05 00:16:34;;;;;;;76.97;56.60;;;18.70;50.60;;;;;;4990972;28;89710;-69
2022/03/05 00:19:00;;;;;;;77.63;57.30;;;18.60;50.80;;;;;;4988556;28;93061;-69
2022/03/05 00:21:26;;;;;;;78.07;57.35;;;18.60;50.50;;;;;;4986750;28;91814;-70
2022/03/05 00:23:51;;;;;;;76.22;56.85;;;18.60;50.60;;;;;;4993585;28;90521;-70
2022/03/05 00:26:17;;;;;;;77.00;56.92;;;18.60;50.60;;;;;;4993272;28;90536;-70
2022/03/05 00:28:43;;;;;;;76.72;56.92;;;18.50;50.50;;;;;;4994896;28;91704;-69
2022/03/05 00:31:08;;;;;;;79.82;58.78;;;18.50;50.70;;;;;;4992809;28;89768;-69
2022/03/05 00:33:34;;;;;;;76.20;56.17;;;18.50;50.80;;;;;;4989383;28;89557;-70
2022/03/05 00:36:00;;;;;;;78.07;57.33;;;18.50;50.60;;;;;;4992572;28;91247;-69
2022/03/05 00:38:25;;;;;;;76.82;57.65;;;18.40;50.60;;;;;;4984687;28;90871;-69
2022/03/05 00:40:51;;;;;;;76.85;56.40;;;18.40;50.60;;;;;;4993420;28;92996;-69
2022/03/05 00:43:17;;;;;;;78.13;56.97;;;18.40;50.50;;;;;;4995753;28;88710;-69
2022/03/05 00:45:43;;;;;;;76.28;57.47;;;18.30;50.50;;;;;;4993807;28;91154;-69
2022/03/05 00:48:09;;;;;;;77.22;57.33;;;18.30;50.40;;;;;;4988114;28;90046;-70
2022/03/05 00:50:34;;;;;;;75.10;56.30;;;18.30;50.40;;;;;;4987301;28;91124;-69
2022/03/05 00:53:00;;;;;;;77.72;57.33;;;18.30;50.60;;;;;;4999450;28;89653;-70
2022/03/05 00:55:26;;;;;;;77.53;56.97;;;18.30;50.50;;;;;;4995693;28;90385;-70
2022/03/05 00:57:52;;;;;;;78.63;57.42;;;18.20;50.60;;;;;;4986576;28;90023;-69
2022/03/05 01:00:17;;;;;;;74.05;56.28;;;18.20;51.00;;;;;;4989274;28;90766;-69
2022/03/05 01:02:43;;;;;;;76.05;56.60;;;18.20;50.50;;;;;;4992576;28;89748;-69
2022/03/05 01:05:10;;;;;;;77.60;58.10;;;18.10;50.40;;;;;;4992085;28;89852;-70
2022/03/05 01:07:36;;;;;;;78.55;57.08;;;18.10;50.30;;;;;;4996009;28;91538;-69
2022/03/05 01:10:02;;;;;;;77.90;57.72;;;18.10;50.60;;;;;;4981183;28;90942;-69
2022/03/05 01:12:27;;;;;;;77.88;57.92;;;18.10;50.50;;;;;;4984688;28;90427;-70
2022/03/05 01:14:53;;;;;;;79.88;58.13;;;18.10;50.50;;;;;;4991426;28;90725;-69
2022/03/05 01:17:19;;;;;;;77.90;57.65;;;18.00;50.30;;;;;;4992105;28;91935;-69
2022/03/05 01:19:46;;;;;;;78.65;57.95;;;18.00;50.40;;;;;;4988830;28;90454;-70
2022/03/05 01:22:11;;;;;;;80.38;58.58;;;18.00;50.50;;;;;;4991691;28;91232;-69
2022/03/05 01:24:37;;;;;;;78.00;57.63;;;18.00;50.40;;;;;;4991138;28;93793;-70
2022/03/05 01:27:03;;;;;;;76.18;56.58;;;18.00;50.50;;;;;;4987825;28;89945;-69
2022/03/05 01:29:28;;;;;;;77.13;57.50;;;17.90;50.50;;;;;;4991794;28;90218;-70
2022/03/05 01:31:54;;;;;;;77.43;57.38;;;17.90;50.50;;;;;;4995846;28;88566;-69
2022/03/05 01:34:20;;;;;;;80.13;59.60;;;17.90;50.40;;;;;;4987233;28;90848;-69
2022/03/05 01:36:46;;;;;;;77.07;57.35;;;17.90;50.40;;;;;;4996146;28;90365;-72
2022/03/05 01:39:12;;;;;;;77.53;57.88;;;17.90;50.30;;;;;;4989391;28;90732;-69
2022/03/05 01:41:37;;;;;;;78.18;58.15;;;17.80;50.30;;;;;;4990952;28;90298;-69
2022/03/05 01:44:04;;;;;;;78.15;58.20;;;17.80;50.40;;;;;;4990845;28;95147;-69
2022/03/05 01:46:34;;;;;;;76.13;56.65;;;17.80;50.50;;;;;;4993667;28;90022;-70
2022/03/05 01:49:05;;;;;;;76.55;57.60;;;17.80;50.50;;;;;;5000590;28;90333;-69
2022/03/05 01:51:31;;;;;;;77.95;57.70;;;17.80;50.50;;;;;;4995729;27;90420;-69
2022/03/05 01:53:56;;;;;;;74.68;56.38;;;17.80;50.40;;;;;;4988005;28;92758;-69
2022/03/05 01:56:24;;;;;;;77.80;57.97;;;17.80;50.40;;;;;;4996791;28;89491;-69
2022/03/05 01:58:50;;;;;;;80.82;58.58;;;17.70;50.40;;;;;;4993379;28;89492;-70
2022/03/05 02:01:16;;;;;;;79.30;57.75;;;17.70;50.50;;;;;;4994636;28;90272;-69
2022/03/05 02:03:42;;;;;;;77.63;56.90;;;17.70;50.40;;;;;;4982638;28;90942;-69
2022/03/05 02:06:10;;;;;;;74.45;56.10;;;17.70;51.00;;;;;;4991035;28;92812;-69
2022/03/05 02:08:36;;;;;;;76.47;57.15;;;17.70;50.40;;;;;;4994362;28;89827;-69
2022/03/05 02:11:02;;;;;;;75.32;57.05;;;17.70;50.30;;;;;;4988566;28;89662;-70
2022/03/05 02:13:28;;;;;;;75.55;56.42;;;17.60;50.40;;;;;;4993021;28;90455;-70
2022/03/05 02:15:55;;;;;;;74.90;56.33;;;17.60;50.40;;;;;;4988028;28;90814;-69
2022/03/05 02:18:21;;;;;;;77.50;57.50;;;17.60;50.40;;;;;;4988111;28;90715;-70
2022/03/05 02:20:48;;;;;;;79.22;56.97;;;17.60;50.40;;;;;;4988017;28;88904;-69
2022/03/05 02:23:13;;;;;;;76.60;57.53;;;17.60;50.40;;;;;;4991963;28;90026;-69
2022/03/05 02:25:50;;;;;;;76.63;57.28;;;17.50;50.40;;;;;;4987896;28;91994;-69
2022/03/05 02:28:16;;;;;;;77.22;57.33;;;17.50;50.30;;;;;;4988829;28;90647;-69
2022/03/05 02:30:41;;;;;;;74.43;55.85;;;17.60;50.40;;;;;;4986207;28;89249;-69
2022/03/05 02:33:07;;;;;;;74.85;56.50;;;17.50;50.30;;;;;;4983705;28;91085;-69
2022/03/05 02:35:32;;;;;;;76.65;56.03;;;17.50;50.30;;;;;;4990804;28;90401;-69
2022/03/05 02:37:58;;;;;;;76.80;57.50;;;17.50;50.30;;;;;;4981710;28;90246;-69
2022/03/05 02:40:23;;;;;;;75.97;56.83;;;17.50;50.20;;;;;;4984777;28;90181;-69
2022/03/05 02:42:49;;;;;;;77.15;57.47;;;17.50;50.20;;;;;;4992806;28;89658;-69
2022/03/05 02:45:14;;;;;;;73.60;55.92;;;17.50;50.30;;;;;;4996111;28;89039;-69
2022/03/05 02:47:41;;;;;;;74.72;56.25;;;17.40;50.20;;;;;;4983365;28;90357;-69
2022/03/05 02:50:07;;;;;;;75.25;56.17;;;17.40;50.20;;;;;;5010078;27;89415;-69
2022/03/05 02:52:32;;;;;;;75.13;56.53;;;17.40;50.20;;;;;;4993566;28;92263;-70
2022/03/05 02:54:58;;;;;;;76.03;55.85;;;17.40;50.20;;;;;;4995640;28;91797;-69
2022/03/05 02:57:24;;;;;;;76.85;56.65;;;17.40;50.20;;;;;;4984417;28;89441;-69
2022/03/05 02:59:49;;;;;;;75.65;56.00;;;17.40;50.30;;;;;;4992271;28;89902;-69
2022/03/05 03:02:15;;;;;;;78.30;56.50;;;17.40;50.20;;;;;;4990383;28;91111;-69
2022/03/05 03:04:40;;;;;;;77.32;57.30;;;17.30;50.30;;;;;;4988979;28;89772;-70
2022/03/05 03:07:06;;;;;;;73.75;56.00;;;17.30;50.20;;;;;;4992608;28;90691;-69
2022/03/05 03:09:31;;;;;;;77.10;57.00;;;17.30;50.10;;;;;;4974010;28;89749;-69
2022/03/05 03:11:57;;;;;;;75.45;56.05;;;17.30;50.20;;;;;;4985894;28;89854;-69
2022/03/05 03:14:22;;;;;;;75.60;56.50;;;17.30;50.10;;;;;;4986140;28;89698;-70
2022/03/05 03:16:48;;;;;;;75.47;56.97;;;17.30;50.20;;;;;;4991184;28;90565;-69
2022/03/05 03:19:14;;;;;;;74.20;56.15;;;17.20;50.10;;;;;;4984126;28;89565;-70
2022/03/05 03:21:39;;;;;;;75.35;56.58;;;17.30;50.20;;;;;;4991325;28;89854;-69
2022/03/05 03:24:05;;;;;;;74.75;56.38;;;17.30;50.10;;;;;;4990090;28;92139;-69
2022/03/05 03:26:30;;;;;;;75.88;57.20;;;17.20;50.10;;;;;;4993030;28;90222;-69
2022/03/05 03:28:56;;;;;;;76.88;57.45;;;17.20;50.10;;;;;;4993086;28;90119;-69
2022/03/05 03:31:21;;;;;;;72.28;55.25;;;17.20;50.10;;;;;;4993227;28;90699;-69
2022/03/05 03:33:47;;;;;;;74.32;55.95;;;17.20;50.00;;;;;;4988293;28;92146;-69
2022/03/05 03:36:13;;;;;;;75.32;57.17;;;17.20;50.10;;;;;;4989837;28;89431;-69
2022/03/05 03:38:40;;;;;;;75.43;56.85;;;17.20;50.00;;;;;;4994489;28;91647;-69
2022/03/05 03:41:05;;;;;;;77.57;56.88;;;17.10;50.10;;;;;;4985781;28;91561;-69
2022/03/05 03:43:31;;;;;;;75.15;56.63;;;17.10;49.90;;;;;;4996999;28;90792;-69
2022/03/05 03:45:57;;;;;;;73.82;56.20;;;17.10;50.00;;;;;;5001069;28;89226;-69
2022/03/05 03:48:22;;;;;;;76.90;56.95;;;17.10;50.10;;;;;;4993542;28;89428;-69
2022/03/05 03:50:48;;;;;;;75.78;57.67;;;17.00;50.10;;;;;;4994119;28;89717;-69
2022/03/05 03:53:13;;;;;;;74.80;56.60;;;17.00;50.00;;;;;;4987504;28;90413;-69
2022/03/05 03:55:39;;;;;;;71.57;54.83;;;17.00;50.00;;;;;;4996641;28;89755;-69
2022/03/05 03:58:05;;;;;;;76.03;57.30;;;17.00;50.10;;;;;;4997450;28;88661;-69
2022/03/05 04:00:30;;;;;;;73.80;56.33;;;17.00;50.10;;;;;;4994892;28;92529;-69
2022/03/05 04:02:56;;;;;;;74.40;56.83;;;17.00;50.10;;;;;;4989185;28;89955;-69
2022/03/05 04:05:21;;;;;;;74.35;56.10;;;17.00;50.60;;;;;;4992461;28;91369;-69
2022/03/05 04:10:31;;;;;;;73.40;56.70;;;17.00;50.00;;;;;;4989851;28;90120;-69
2022/03/05 04:12:57;;;;;;;75.28;56.70;;;17.00;49.90;;;;;;4990325;28;89872;-69
2022/03/05 04:15:24;;;;;;;74.70;56.50;;;16.90;50.00;;;;;;4995421;28;89370;-69
2022/03/05 04:17:50;;;;;;;75.28;57.03;;;16.90;50.00;;;;;;4995947;28;89377;-69
2022/03/05 04:20:16;;;;;;;74.55;57.17;;;16.90;50.00;;;;;;4995792;28;89771;-69
2022/03/05 04:22:42;;;;;;;74.78;56.10;;;16.90;50.00;;;;;;4990601;28;88900;-69
2022/03/05 04:25:08;;;;;;;72.35;55.92;;;16.90;50.00;;;;;;4992085;28;89738;-69
2022/03/05 04:27:34;;;;;;;74.65;56.55;;;16.80;49.80;;;;;;4987858;28;94945;-69
2022/03/05 04:29:59;;;;;;;74.40;55.10;;;16.90;50.00;;;;;;4983657;28;90819;-70
2022/03/05 04:32:25;;;;;;;77.38;56.85;;;16.80;49.90;;;;;;4993915;28;90480;-69
2022/03/05 04:34:50;;;;;;;76.25;57.13;;;16.80;49.70;;;;;;4986451;28;89960;-69
2022/03/05 04:37:16;;;;;;;74.25;56.72;;;16.90;49.90;;;;;;4989838;28;90370;-69
2022/03/05 04:39:42;;;;;;;75.57;57.22;;;16.80;49.80;;;;;;4985393;28;91985;-69
2022/03/05 04:42:08;;;;;;;74.47;57.05;;;16.80;49.90;;;;;;4989782;28;89779;-70
2022/03/05 04:44:33;;;;;;;73.63;55.95;;;16.80;49.80;;;;;;4991731;28;89714;-69
2022/03/05 04:46:59;;;;;;;73.65;55.47;;;16.80;49.90;;;;;;5001291;28;88882;-69
2022/03/05 04:49:25;;;;;;;73.03;55.72;;;16.80;49.90;;;;;;4976986;28;90469;-69
2022/03/05 04:51:50;;;;;;;71.43;55.35;;;16.80;49.90;;;;;;4994582;28;89507;-69
2022/03/05 04:54:16;;;;;;;74.22;55.75;;;16.80;49.70;;;;;;4991587;28;91542;-69
2022/03/05 04:56:42;;;;;;;74.47;55.45;;;16.80;50.00;;;;;;4992554;28;90833;-69
2022/03/05 04:59:08;;;;;;;73.30;55.53;;;16.80;49.90;;;;;;4994948;28;92002;-69
2022/03/05 05:01:34;;;;;;;75.78;56.42;;;16.80;50.10;;;;;;4995212;28;89787;-70
2022/03/05 05:03:59;;;;;;;75.55;57.30;;;16.80;49.90;;;;;;4987237;28;89342;-70
2022/03/05 05:06:25;;;;;;;73.05;56.00;;;16.90;50.00;;;;;;4991631;28;90393;-69
2022/03/05 05:08:51;;;;;;;73.35;56.15;;;16.90;49.80;;;;;;4992284;28;90344;-69
2022/03/05 05:11:17;;;;;;;72.30;55.30;;;16.90;49.80;;;;;;4983093;28;90475;-70
2022/03/05 05:13:43;;;;;;;75.22;56.55;;;17.00;50.10;;;;;;4988072;28;89281;-70
2022/03/05 05:16:08;;;;;;;72.97;55.95;;;17.00;49.20;;;;;;4999477;28;89457;-70
2022/03/05 05:18:34;;;;;;;74.03;56.22;;;17.00;49.20;;;;;;4990661;28;91242;-70
2022/03/05 05:21:00;;;;;;;72.18;55.60;;;17.00;49.20;;;;;;4990006;28;90612;-69
2022/03/05 05:23:26;;;;;;;71.60;54.97;;;17.00;49.10;;;;;;4990778;28;91221;-70
2022/03/05 05:25:52;;;;;;;73.95;56.13;;;17.00;49.10;;;;;;4992582;28;90523;-70
2022/03/05 05:28:18;;;;;;;73.07;56.17;;;17.00;49.20;;;;;;4993560;28;90022;-69
2022/03/05 05:30:43;;;;;;;73.88;55.83;;;17.00;49.40;;;;;;4992709;28;91522;-70
2022/03/05 05:33:09;;;;;;;74.55;56.47;;;17.00;49.30;;;;;;4991759;28;89329;-70
2022/03/05 05:35:34;;;;;;;75.57;56.05;;;17.10;49.30;;;;;;4989213;28;89365;-69
2022/03/05 05:38:00;;;;;;;74.25;55.75;;;17.10;49.20;;;;;;4989021;28;96504;-70
2022/03/05 05:40:26;;;;;;;73.93;56.03;;;17.20;49.10;;;;;;4986236;28;89582;-69
2022/03/05 05:42:51;;;;;;;76.00;57.33;;;17.30;48.80;;;;;;4989607;28;92615;-70
2022/03/05 05:45:17;;;;;;;73.82;56.50;;;17.30;48.80;;;;;;4987671;27;95598;-70
2022/03/05 05:47:42;;;;;;;74.55;56.70;;;17.30;48.70;;;;;;4993600;28;90503;-69
2022/03/05 05:50:09;;;;;;;73.80;56.17;;;17.30;48.50;;;;;;4992185;28;90514;-69
2022/03/05 05:52:34;;;;;;;72.13;55.65;;;17.40;48.60;;;;;;4987515;28;90315;-69
2022/03/05 05:55:00;;;;;;;73.13;56.00;;;17.40;48.20;;;;;;4988483;28;89902;-70
2022/03/05 05:57:25;;;;;;;77.32;57.65;;;17.40;48.10;;;;;;4991169;28;90522;-70
2022/03/05 05:59:51;;;;;;;77.68;58.42;;;17.50;48.30;;;;;;4988019;28;91047;-70
2022/03/05 06:02:17;;;;;;;75.38;57.33;;;17.50;48.40;;;;;;4987841;28;89781;-69
2022/03/05 06:04:42;;;;;;;73.68;56.17;;;17.50;47.80;;;;;;4990557;28;89662;-70
2022/03/05 06:07:08;;;;;;;74.80;56.47;;;17.50;48.00;;;;;;4982699;28;91182;-69
2022/03/05 06:09:33;;;;;;;75.40;56.55;;;17.50;48.00;;;;;;4983046;28;91572;-70
2022/03/05 06:11:59;;;;;;;73.28;56.05;;;17.50;48.00;;;;;;4985012;28;90742;-70
2022/03/05 06:14:25;;;;;;;73.70;56.17;;;17.50;47.70;;;;;;4988655;28;89889;-70
2022/03/05 06:16:51;;;;;;;73.95;56.45;;;17.50;47.90;;;;;;4995519;28;90246;-70
2022/03/05 06:19:16;;;;;;;73.50;55.65;;;17.50;47.80;;;;;;4986785;28;91790;-69
2022/03/05 06:21:42;;;;;;;74.18;55.65;;;17.50;47.90;;;;;;4987703;28;91666;-70
2022/03/05 06:24:08;;;;;;;73.53;55.63;;;17.50;48.10;;;;;;4985124;28;88972;-70
2022/03/05 06:26:34;;;;;;;72.70;55.65;;;17.50;47.80;;;;;;4996016;28;92851;-70
2022/03/05 06:29:00;;;;;;;75.30;55.72;;;17.50;47.90;;;;;;4991705;28;89969;-69
2022/03/05 06:31:25;;;;;;;72.72;55.30;;;17.50;47.80;;;;;;4995788;28;91360;-70
2022/03/05 06:33:51;;;;;;;73.57;55.70;;;17.60;47.90;;;;;;4988577;28;89865;-69
2022/03/05 06:36:17;;;;;;;73.47;55.05;;;17.70;47.80;;;;;;4991773;28;89755;-69
2022/03/05 06:38:42;;;;;;;74.50;56.05;;;17.60;47.70;;;;;;4992764;28;89650;-70
2022/03/05 06:41:08;;;;;;;74.57;55.33;;;17.70;47.50;;;;;;4984372;28;89589;-70
2022/03/05 06:43:34;;;;;;;72.80;55.42;;;17.70;47.40;;;;;;4992512;28;90637;-70
2022/03/05 06:45:59;;;;;;;71.57;54.92;;;17.70;47.50;;;;;;4993123;28;91830;-69
2022/03/05 06:48:25;;;;;;;72.93;55.50;;;17.70;47.30;;;;;;4991819;28;91447;-69
2022/03/05 06:50:50;;;;;;;70.80;54.85;;;17.80;47.30;;;;;;4989166;28;89908;-69
2022/03/05 06:53:16;;;;;;;71.97;55.05;;;17.80;47.20;;;;;;4988928;28;89601;-70
2022/03/05 06:55:42;;;;;;;71.70;55.53;;;17.80;47.00;;;;;;4992295;28;92640;-70
2022/03/05 06:58:08;;;;;;;72.75;56.35;;;17.80;47.00;;;;;;4998742;28;90074;-70
2022/03/05 07:00:34;;;;;;;71.90;55.47;;;17.80;47.00;;;;;;4986757;28;89514;-69
2022/03/05 07:03:00;;;;;;;72.30;54.88;;;17.80;47.00;;;;;;4989066;28;89627;-70
2022/03/05 07:05:25;;;;;;;69.55;54.17;;;17.80;47.00;;;;;;4982586;28;89663;-70
2022/03/05 07:07:51;;;;;;;73.03;55.85;;;17.80;46.90;;;;;;4990666;28;92613;-69
2022/03/05 07:10:17;;;;;;;69.70;54.75;;;17.80;46.70;;;;;;4985280;28;90330;-69
2022/03/05 07:12:43;;;;;;;71.78;55.28;;;17.80;46.80;;;;;;4979383;28;89601;-69
2022/03/05 07:15:09;;;;;;;70.57;54.72;;;17.70;46.80;;;;;;4993298;28;92093;-70
2022/03/05 07:17:34;;;;;;;71.13;54.80;;;17.70;46.80;;;;;;4989197;28;95482;-69
2022/03/05 07:20:00;;;;;;;72.65;55.22;;;17.70;46.90;;;;;;4989683;28;92093;-71
2022/03/05 07:22:26;;;;;;;72.43;55.22;;;17.70;47.00;;;;;;4989037;28;90110;-70
2022/03/05 07:24:51;;;;;;;73.10;54.42;;;17.70;46.70;;;;;;4989021;28;90860;-70
2022/03/05 07:27:17;;;;;;;70.15;54.60;;;17.70;46.70;;;;;;4991779;28;91634;-71
2022/03/05 07:29:43;;;;;;;71.85;54.80;;;17.70;46.80;;;;;;4990526;28;90253;-70
2022/03/05 07:32:10;;;;;;;72.75;55.60;;;17.70;46.70;;;;;;4991148;28;90988;-70
2022/03/05 07:34:36;;;;;;;73.85;55.10;;;17.70;46.70;;;;;;4987854;28;89879;-70
2022/03/05 07:37:02;;;;;;;74.30;55.15;;;17.70;46.70;;;;;;4990772;28;90485;-70
2022/03/05 07:39:28;;;;;;;71.65;55.03;;;17.70;46.90;;;;;;4992477;28;90261;-70
2022/03/05 07:41:54;;;;;;;71.95;54.80;;;17.70;46.80;;;;;;4983086;28;89853;-69
2022/03/05 07:44:20;;;;;;;71.38;55.08;;;17.70;46.70;;;;;;4985952;28;91001;-70
2022/03/05 07:46:46;;;;;;;71.90;54.78;;;17.70;46.70;;;;;;4989278;28;89943;-70
2022/03/05 07:49:11;;;;;;;72.22;55.40;;;17.80;46.80;;;;;;4990981;28;90514;-70
2022/03/05 07:51:37;;;;;;;73.18;55.10;;;17.80;46.70;;;;;;4985424;28;91048;-70
2022/03/05 07:54:04;;;;;;;73.47;56.15;;;17.80;46.60;;;;;;4984742;28;91302;-70
2022/03/05 07:56:29;;;;;;;72.07;54.92;;;17.80;46.50;;;;;;4986854;28;91111;-70
2022/03/05 07:58:55;;;;;;;71.80;54.53;;;17.80;46.50;;;;;;4989113;28;90706;-69
2022/03/05 08:01:21;;;;;;;71.43;54.80;;;17.90;46.50;;;;;;4986317;28;90037;-69
2022/03/05 08:03:46;;;;;;;72.72;56.03;;;17.90;46.50;;;;;;4990001;28;91633;-69
2022/03/05 08:06:12;;;;;;;70.32;54.17;;;17.90;46.40;;;;;;4981354;28;91457;-69
2022/03/05 08:08:38;;;;;;;71.18;54.60;;;17.90;46.40;;;;;;4992752;28;92255;-69
2022/03/05 08:11:03;;;;;;;72.97;55.45;;;17.90;46.40;;;;;;4989954;28;89713;-70
2022/03/05 08:13:29;;;;;;;73.22;55.97;;;17.90;46.30;;;;;;4985510;28;89583;-70
2022/03/05 08:15:55;;;;;;;73.82;55.40;;;17.90;46.30;;;;;;4997270;28;92163;-70
2022/03/05 08:18:21;;;;;;;72.43;54.78;;;18.00;46.30;;;;;;4990673;28;90363;-69
2022/03/05 08:20:47;;;;;;;72.15;54.20;;;18.00;46.40;;;;;;4992599;28;91139;-69
2022/03/05 08:23:13;;;;;;;71.65;54.58;;;18.00;46.30;;;;;;4994837;28;94365;-69
2022/03/05 08:25:39;;;;;;;72.07;54.47;;;18.00;46.20;;;;;;4994995;28;90491;-69
2022/03/05 08:28:04;;;;;;;74.47;55.30;;;18.00;46.30;;;;;;4995856;28;90594;-69
2022/03/05 08:30:30;;;;;;;72.82;54.83;;;18.00;46.10;;;;;;4992491;28;91116;-70
2022/03/05 08:32:55;;;;;;;75.07;55.63;;;18.00;46.20;;;;;;4994686;28;91564;-69
2022/03/05 08:35:21;;;;;;;72.28;54.80;;;18.00;46.20;;;;;;4992166;28;91314;-69
2022/03/05 08:37:47;;;;;;;72.32;54.78;;;18.00;46.10;;;;;;4993794;28;89793;-70
2022/03/05 08:40:14;;;;;;;74.50;56.20;;;18.00;46.20;;;;;;4989521;28;89868;-70
2022/03/05 08:42:41;;;;;;;73.35;55.22;;;18.00;46.10;;;;;;4989286;28;92723;-69
2022/03/05 08:45:07;;;;;;;73.78;55.45;;;18.00;46.10;;;;;;4992325;28;90159;-69
2022/03/05 08:47:33;;;;;;;73.00;56.13;;;18.10;46.00;;;;;;4994892;28;90406;-70
2022/03/05 08:49:59;;;;;;;72.93;55.70;;;18.10;46.00;;;;;;4990201;28;89713;-69
2022/03/05 08:52:24;;;;;;;73.85;56.38;;;18.10;46.00;;;;;;4995377;28;92626;-69
2022/03/05 08:54:51;;;;;;;71.25;54.83;;;18.10;45.90;;;;;;4994947;28;89992;-70
2022/03/05 08:57:16;;;;;;;73.15;55.30;;;18.10;45.80;;;;;;4997373;28;91640;-69
2022/03/05 08:59:42;;;;;;;73.50;55.75;;;18.20;45.70;;;;;;4986319;28;89508;-70
2022/03/05 09:02:08;;;;;;;74.20;55.42;;;18.20;45.80;;;;;;4990952;28;95528;-70
2022/03/05 09:04:34;;;;;;;73.45;54.80;;;18.20;45.70;;;;;;4974337;28;92414;-68
2022/03/05 09:07:00;;;;;;;76.40;56.70;;;18.20;45.80;;;;;;4982291;28;91249;-68
2022/03/05 09:09:26;;;;;;;73.22;55.63;;;18.20;46.00;;;;;;4982284;28;90427;-69
2022/03/05 09:11:52;;;;;;;73.70;55.33;;;18.20;46.00;;;;;;4988702;28;90288;-70
2022/03/05 09:14:18;;;;;;;73.82;55.58;;;18.20;46.10;;;;;;4986441;28;88983;-70
2022/03/05 09:16:44;;;;;;;75.22;55.72;;;18.20;46.10;;;;;;4996442;28;89933;-69
2022/03/05 09:19:11;;;;;;;75.15;55.88;;;18.20;46.20;;;;;;4995034;28;92717;-70
2022/03/05 09:21:39;;;;;;;74.57;56.28;;;18.20;46.40;;;;;;4998141;28;93021;-72
2022/03/05 09:24:07;;;;;;;77.72;56.25;;;18.20;46.50;;;;;;4992876;28;94158;-71
2022/03/05 09:26:33;;;;;;;76.63;56.50;;;18.20;46.70;;;;;;4992688;28;90758;-68
2022/03/05 09:28:59;;;;;;;77.32;56.00;;;18.20;46.60;;;;;;4983735;28;90520;-70
2022/03/05 09:31:25;;;;;;;79.07;55.83;;;18.20;46.70;;;;;;4994604;28;90354;-71
2022/03/05 09:33:51;;;;;;;77.35;55.90;;;18.20;46.90;;;;;;4992314;28;89845;-71
2022/03/05 09:36:17;;;;;;;78.22;57.38;;;18.20;47.00;;;;;;4986736;28;90478;-70
2022/03/05 09:38:43;;;;;;;81.70;56.05;;;18.30;46.90;;;;;;4988165;28;89149;-68
2022/03/05 09:41:10;;;;;;;77.20;57.35;;;18.30;47.30;;;;;;4987281;28;90730;-70
2022/03/05 09:43:36;;;;;;;77.53;56.83;;;18.30;47.70;;;;;;4983352;28;90965;-70
2022/03/05 09:46:02;;;;;;;75.22;56.42;;;18.40;48.00;;;;;;4977040;28;90452;-70
2022/03/05 09:48:30;;;;;;;76.60;56.75;;;18.40;47.80;;;;;;4990230;28;90002;-71
2022/03/05 09:50:57;;;;;;;77.13;57.00;;;18.40;47.90;;;;;;4983503;28;91136;-72
2022/03/05 09:53:28;;;;;;;77.72;56.75;;;18.50;48.10;;;;;;4988573;28;91965;-71
2022/03/05 09:55:53;;;;;;;80.65;56.35;;;18.50;48.20;;;;;;4986545;28;92541;-68
2022/03/05 09:58:19;;;;;;;80.45;57.35;;;18.50;48.30;;;;;;4997940;28;89448;-71
2022/03/05 10:00:45;;;;;;;76.53;56.67;;;18.60;48.00;;;;;;4978813;28;90003;-71
2022/03/05 10:03:14;;;;;;;77.22;55.78;;;18.60;47.70;;;;;;4989240;28;90101;-72
2022/03/05 10:05:40;;;;;;;78.90;57.00;;;18.60;47.70;;;;;;4988585;28;91290;-72
2022/03/05 10:08:12;;;;;;;79.88;57.92;;;18.60;47.50;;;;;;4991391;28;89930;-71
2022/03/05 10:10:54;;;;;;;83.93;57.50;;;18.60;47.50;;;;;;4999189;28;92092;-71
2022/03/05 10:13:31;;;;;;;84.47;59.15;;;18.60;47.60;;;;;;4985908;28;90053;-71
2022/03/05 10:16:01;;;;;;;83.22;57.88;;;18.60;47.40;;;;;;4963743;28;89423;-71
2022/03/05 10:18:31;;;;;;;82.55;58.88;;;18.60;47.50;;;;;;4981560;28;90196;-71
2022/03/05 10:21:01;;;;;;;81.05;57.30;;;18.60;47.40;;;;;;4991829;28;92024;-71
2022/03/05 10:23:32;;;;;;;81.93;57.92;;;18.60;47.50;;;;;;4993324;28;94086;-72
2022/03/05 10:25:57;;;;;;;81.85;58.05;;;18.60;47.50;;;;;;4984705;28;90252;-72
2022/03/05 10:28:26;;;;;;;86.70;58.45;;;18.60;47.50;;;;;;4986548;28;91552;-71
2022/03/05 10:30:54;;;;;;;86.00;58.88;;;18.60;47.40;;;;;;4982917;28;92120;-69
2022/03/05 10:33:40;;;;;;;83.32;57.90;;;18.60;47.50;;;;;;4979427;28;90653;-70
2022/03/05 10:36:16;;;;;;;83.97;58.30;;;18.60;47.50;;;;;;4984315;28;90980;-69
2022/03/05 10:38:48;;;;;;;84.88;58.08;;;18.60;47.50;;;;;;4994769;28;89735;-68
2022/03/05 10:41:31;;;;;;;82.78;58.92;;;18.60;47.70;;;;;;4974097;28;90251;-71
2022/03/05 10:44:23;;;;;;;86.57;58.70;;;18.60;48.00;;;;;;4977300;27;90789;-71
2022/03/05 10:46:58;;;;;;;85.60;57.95;;;18.70;48.00;;;;;;4990062;28;91500;-70
2022/03/05 10:49:36;;;;;;;87.75;58.63;;;18.70;48.10;;;;;;4981750;28;89787;-69
2022/03/05 10:52:08;;;;;;;86.00;59.03;;;18.70;48.00;;;;;;4973327;28;90391;-72
2022/03/05 10:54:44;;;;;;;91.63;59.42;;;18.80;48.10;;;;;;4973078;28;94465;-71
2022/03/05 10:57:22;;;;;;;86.47;60.72;;;18.80;48.80;;;;;;4987043;28;90214;-71
2022/03/05 10:59:52;;;;;;;94.53;59.60;;;18.80;48.70;;;;;;4988334;28;90474;-71
2022/03/05 11:02:22;;;;;;;97.57;60.15;;;18.90;48.90;;;;;;4984657;28;91211;-72
2022/03/05 11:04:50;;;;;;;117.15;65.57;;;18.90;48.90;;;;;;4981721;28;91627;-70
2022/03/05 11:07:25;;;;;;;124.68;68.53;;;19.00;49.00;;;;;;4986930;28;91969;-70
2022/03/05 11:09:54;;;;;;;116.57;65.65;;;19.00;49.00;;;;;;4983233;28;92140;-72
2022/03/05 11:12:21;;;;;;;106.75;63.75;;;19.00;48.60;;;;;;4986263;28;89730;-71
2022/03/05 11:14:48;;;;;;;111.30;65.80;;;19.00;48.50;;;;;;4977491;28;92629;-72
2022/03/05 11:17:14;;;;;;;98.00;63.85;;;19.00;48.60;;;;;;4984738;28;90395;-72
2022/03/05 11:19:40;;;;;;;105.47;65.25;;;19.10;48.60;;;;;;4986660;28;89944;-72
2022/03/05 11:22:08;;;;;;;101.80;64.82;;;19.10;48.60;;;;;;4976843;28;90468;-72
2022/03/05 11:24:34;;;;;;;100.20;63.47;;;19.10;48.50;;;;;;4983061;28;92237;-71
2022/03/05 11:27:00;;;;;;;98.28;61.63;;;19.10;48.80;;;;;;4980726;28;91231;-71
2022/03/05 11:29:28;;;;;;;94.22;63.03;;;19.10;49.10;;;;;;4984380;28;90722;-71
2022/03/05 11:32:12;;;;;;;97.82;61.53;;;19.10;49.00;;;;;;4990554;28;90435;-72
2022/03/05 11:34:46;;;;;;;96.47;63.10;;;19.10;48.90;;;;;;4985683;28;95658;-71
2022/03/05 11:37:34;;;;;;;100.07;62.90;;;19.10;48.70;;;;;;4983277;28;90658;-71
2022/03/05 11:40:03;;;;;;;94.70;62.28;;;19.10;48.90;;;;;;4989865;28;89991;-72
2022/03/05 11:42:34;;;;;;;106.72;65.85;;;19.10;49.00;;;;;;4976171;28;90067;-71
2022/03/05 11:45:01;;;;;;;104.13;68.30;;;19.10;48.80;;;;;;4976269;28;91649;-72
2022/03/05 11:47:30;;;;;;;99.32;66.65;;;19.10;48.60;;;;;;4985821;28;90060;-72
2022/03/05 11:49:56;;;;;;;103.22;68.55;;;19.10;48.60;;;;;;4981752;28;91078;-71
2022/03/05 11:52:22;;;;;;;98.07;63.60;;;19.10;48.80;;;;;;4989546;28;91692;-74
2022/03/05 11:55:26;;;;;;;100.40;64.70;;;19.10;49.30;;;;;;4992002;28;91352;-72
2022/03/05 11:57:52;;;;;;;106.45;70.00;;;19.10;48.90;;;;;;4965602;28;91667;-71
2022/03/05 12:00:19;;;;;;;105.60;70.75;;;19.10;48.70;;;;;;4969145;28;89872;-72
2022/03/05 12:02:58;;;;;;;101.75;67.53;;;19.20;48.80;;;;;;4979559;28;90823;-69
2022/03/05 12:05:36;;;;;;;103.90;71.05;;;19.20;49.10;;;;;;4986820;28;90103;-72
2022/03/05 12:08:05;;;;;;;104.72;69.30;;;19.20;48.90;;;;;;4985560;28;91764;-73
2022/03/05 12:10:31;;;;;;;102.40;66.28;;;19.20;49.30;;;;;;4992683;28;89809;-73
2022/03/05 12:12:59;;;;;;;99.88;68.22;;;19.30;49.70;;;;;;4978616;28;90907;-72
2022/03/05 12:15:45;;;;;;;101.45;67.28;;;19.30;49.60;;;;;;4973946;28;89814;-72
2022/03/05 12:18:14;;;;;;;103.50;66.97;;;19.30;49.60;;;;;;4986034;28;90661;-73
2022/03/05 12:20:48;;;;;;;104.32;71.70;;;19.40;49.50;;;;;;4992486;28;96735;-72
2022/03/05 12:23:19;;;;;;;100.35;66.18;;;19.40;50.00;;;;;;4985807;28;90370;-72
2022/03/05 12:25:47;;;;;;;104.30;68.80;;;19.40;49.70;;;;;;4991984;28;90417;-72
2022/03/05 12:28:23;;;;;;;95.72;64.72;;;19.40;49.30;;;;;;4992575;28;90547;-71